Terminal Aerodrome Forecast
Issued by NWS

Home | Current Version | Previous Version | Text Only | Print | Product List | Glossary On
Versions: 1 2 3 4 5 6 7 8 9 10 11 12 13 14
994
FTUS44 KTSA 251140
TAFXNA
TAF
KXNA 251140Z 2512/2612 26005KT P6SM VCTS OVC030CB
      TEMPO 2512/2513 VRB10G17KT 3SM TSRA BR
     FM251400 28010KT P6SM VCSH OVC015
      TEMPO 2514/2516 6SM -RA BKN008
     FM251800 VRB04KT P6SM SCT040=

USA.gov is the U.S. government's official web portal to all federal, state and local government web resources and services.